Time;durP1;ratioP1;P1;durP2;ratioP2;P2;SDS_P1;SDS_P2;PMS_P1;PMS_P2;Temp;Humidity;BMP_temperature;BMP_pressure;BME280_temperature;BME280_humidity;BME280_pressure;Samples;Min_cycle;Max_cycle;Signal;HPM_P1;HPM_P2
2023/04/22 00:00:16;;;;;;;471.43;111.40;;;10.90;99.90;;;;;;5111436;28;20216;-52
2023/04/22 00:02:44;;;;;;;547.47;74.47;;;10.90;99.90;;;;;;5106309;28;20250;-52
2023/04/22 00:05:13;;;;;;;328.30;74.13;;;10.80;99.90;;;;;;5111300;28;20318;-52
2023/04/22 00:07:46;;;;;;;254.17;52.77;;;10.60;99.90;;;;;;5111505;28;20218;-52
2023/04/22 00:10:14;;;;;;;1038.60;158.37;;;10.50;99.90;;;;;;5111172;28;20300;-51
2023/04/22 00:12:42;;;;;;;42.73;21.07;;;10.50;99.90;;;;;;5111380;28;20249;-52
2023/04/22 00:15:10;;;;;;;67.80;24.93;;;10.50;99.90;;;;;;5096043;28;20230;-52
2023/04/22 00:17:41;;;;;;;807.07;108.47;;;10.50;99.90;;;;;;5109545;28;20226;-51
2023/04/22 00:20:11;;;;;;;142.10;36.87;;;10.40;99.90;;;;;;5105104;28;20227;-52
2023/04/22 00:22:39;;;;;;;165.33;48.23;;;10.30;99.90;;;;;;5111021;28;20202;-51
2023/04/22 00:25:08;;;;;;;519.50;88.50;;;10.30;99.90;;;;;;5111148;28;20233;-51
2023/04/22 00:27:36;;;;;;;377.40;66.87;;;10.30;99.90;;;;;;5111015;28;20207;-52
2023/04/22 00:30:05;;;;;;;32.43;19.20;;;10.30;99.90;;;;;;5110231;28;20204;-51
2023/04/22 00:32:33;;;;;;;461.70;88.87;;;10.30;99.90;;;;;;5108917;28;20208;-52
2023/04/22 00:35:03;;;;;;;844.03;190.50;;;10.30;99.90;;;;;;5109758;27;20223;-52
2023/04/22 00:37:31;;;;;;;772.93;132.00;;;10.30;99.90;;;;;;5110119;28;20326;-52
2023/04/22 00:39:59;;;;;;;444.03;119.07;;;10.30;99.90;;;;;;5096097;28;20339;-51
2023/04/22 00:42:27;;;;;;;88.67;21.20;;;10.30;99.90;;;;;;5090762;28;20235;-52
2023/04/22 00:44:55;;;;;;;224.50;32.90;;;10.20;99.90;;;;;;5098626;28;20228;-52
2023/04/22 00:47:25;;;;;;;170.67;50.77;;;10.30;99.90;;;;;;5097916;28;20298;-52
2023/04/22 00:49:54;;;;;;;250.57;77.30;;;10.30;99.90;;;;;;5110605;28;20208;-51
2023/04/22 00:52:24;;;;;;;84.93;40.10;;;10.30;99.90;;;;;;5110149;28;20250;-52
2023/04/22 00:54:52;;;;;;;260.23;76.17;;;10.30;99.90;;;;;;5109673;28;20255;-52
2023/04/22 00:57:20;;;;;;;899.03;199.13;;;10.40;99.90;;;;;;5109872;28;20290;-52
2023/04/22 00:59:49;;;;;;;301.20;81.10;;;10.30;99.90;;;;;;5106993;28;20303;-52
2023/04/22 01:02:17;;;;;;;498.43;90.17;;;10.30;99.90;;;;;;5109782;28;20310;-52
2023/04/22 01:04:46;;;;;;;476.43;104.10;;;10.30;99.90;;;;;;5109929;28;20231;-52
2023/04/22 01:07:14;;;;;;;413.37;66.40;;;10.30;99.90;;;;;;5109714;28;20207;-51
2023/04/22 01:09:44;;;;;;;58.83;25.70;;;10.30;99.90;;;;;;5105021;28;20199;-51
2023/04/22 01:12:12;;;;;;;479.70;87.83;;;10.30;99.90;;;;;;5100189;28;20299;-52
2023/04/22 01:14:40;;;;;;;143.60;45.53;;;10.20;99.90;;;;;;5094914;28;20228;-52
2023/04/22 01:17:10;;;;;;;598.97;131.30;;;10.20;99.90;;;;;;5083067;28;20262;-52
2023/04/22 01:19:40;;;;;;;494.73;79.03;;;10.20;99.90;;;;;;5072912;28;20260;-51
2023/04/22 01:22:12;;;;;;;461.97;114.80;;;10.20;99.90;;;;;;5083030;28;20200;-52
2023/04/22 01:24:41;;;;;;;35.87;24.27;;;10.20;99.90;;;;;;5079227;28;20274;-51
2023/04/22 01:27:10;;;;;;;571.53;111.90;;;10.20;99.90;;;;;;5089379;28;20239;-52
2023/04/22 01:29:38;;;;;;;963.53;197.60;;;10.20;99.90;;;;;;5089369;28;20200;-52
2023/04/22 01:32:07;;;;;;;359.70;82.03;;;10.20;99.90;;;;;;5085381;28;20234;-52
2023/04/22 01:34:35;;;;;;;310.37;59.73;;;10.20;99.90;;;;;;5085411;28;20224;-52
2023/04/22 01:37:03;;;;;;;616.70;133.13;;;10.20;99.90;;;;;;5088944;28;20295;-52
2023/04/22 01:39:31;;;;;;;778.27;163.87;;;10.20;99.90;;;;;;5089353;28;20305;-52
2023/04/22 01:42:02;;;;;;;226.73;66.77;;;10.20;99.90;;;;;;5089046;28;20201;-51
2023/04/22 01:44:30;;;;;;;574.40;105.93;;;10.20;99.90;;;;;;5089121;28;20232;-51
2023/04/22 01:46:58;;;;;;;199.83;64.40;;;10.20;99.90;;;;;;5088094;28;20216;-51
2023/04/22 01:49:26;;;;;;;70.43;17.37;;;10.20;99.90;;;;;;5083030;28;20300;-52
2023/04/22 01:51:54;;;;;;;136.97;30.53;;;10.20;99.90;;;;;;5081461;28;20680;-52
2023/04/22 01:54:22;;;;;;;151.87;38.23;;;10.20;99.90;;;;;;5087710;28;20318;-52
2023/04/22 01:56:51;;;;;;;160.30;48.33;;;10.20;99.90;;;;;;5089202;28;20869;-52
2023/04/22 01:59:21;;;;;;;242.87;52.97;;;10.10;99.90;;;;;;5088851;28;20227;-52
2023/04/22 02:01:49;;;;;;;57.83;14.17;;;10.10;99.90;;;;;;5089134;28;20327;-52
2023/04/22 02:04:17;;;;;;;524.87;103.53;;;10.20;99.90;;;;;;5088817;28;20318;-52
2023/04/22 02:06:45;;;;;;;329.30;75.37;;;10.20;99.90;;;;;;5088482;28;20200;-52
2023/04/22 02:09:13;;;;;;;386.60;74.33;;;10.20;99.90;;;;;;5088921;28;20291;-51
2023/04/22 02:11:41;;;;;;;291.23;65.77;;;10.20;99.90;;;;;;5088830;28;20218;-52
2023/04/22 02:14:09;;;;;;;92.00;27.03;;;10.20;99.90;;;;;;5088587;28;20698;-52
2023/04/22 02:16:40;;;;;;;120.63;33.80;;;10.30;99.90;;;;;;5088549;28;20277;-52
2023/04/22 02:19:09;;;;;;;64.87;40.70;;;10.30;99.90;;;;;;5088539;28;20208;-52
2023/04/22 02:21:37;;;;;;;35.33;20.10;;;10.30;99.90;;;;;;5088526;28;20303;-51
2023/04/22 02:24:05;;;;;;;70.77;29.57;;;10.20;99.90;;;;;;5077955;28;20319;-51
2023/04/22 02:26:33;;;;;;;84.00;48.00;;;10.30;99.90;;;;;;5084923;28;20295;-52
2023/04/22 02:29:01;;;;;;;813.20;142.23;;;10.30;99.90;;;;;;5087345;28;20205;-51
2023/04/22 02:31:30;;;;;;;74.03;22.60;;;10.30;99.90;;;;;;5084488;28;20299;-52
2023/04/22 02:33:59;;;;;;;459.30;99.50;;;10.30;99.90;;;;;;5096456;28;20234;-52
2023/04/22 02:36:27;;;;;;;1172.10;242.83;;;10.40;99.90;;;;;;5098668;28;20311;-51
2023/04/22 02:38:55;;;;;;;161.23;45.60;;;10.40;99.90;;;;;;5106274;28;20207;-52
2023/04/22 02:41:24;;;;;;;31.83;18.60;;;10.50;99.90;;;;;;5086465;28;20233;-52
2023/04/22 02:43:52;;;;;;;499.30;107.33;;;10.50;99.90;;;;;;5079886;28;20234;-52
2023/04/22 02:46:20;;;;;;;203.63;62.67;;;10.50;99.90;;;;;;5074001;28;20238;-51
2023/04/22 02:48:48;;;;;;;97.50;37.63;;;10.40;99.90;;;;;;5088432;28;20260;-52
2023/04/22 02:51:18;;;;;;;141.27;44.93;;;10.50;99.90;;;;;;5088617;28;20262;-52
2023/04/22 02:53:46;;;;;;;290.40;53.47;;;10.40;99.90;;;;;;5088137;28;20994;-52
2023/04/22 02:56:14;;;;;;;210.73;37.13;;;10.40;99.90;;;;;;5088335;28;20229;-52
2023/04/22 02:58:42;;;;;;;548.17;109.07;;;10.40;99.90;;;;;;5075971;28;20682;-52
2023/04/22 03:01:10;;;;;;;132.00;30.57;;;10.50;99.90;;;;;;5091984;28;20370;-52
2023/04/22 03:03:38;;;;;;;38.20;19.17;;;10.50;99.90;;;;;;5092536;28;20215;-52
2023/04/22 03:06:07;;;;;;;147.93;39.37;;;10.50;99.90;;;;;;5092116;28;20663;-52
2023/04/22 03:08:36;;;;;;;592.20;93.93;;;10.50;99.90;;;;;;5092521;28;20287;-52
2023/04/22 03:11:05;;;;;;;55.67;24.20;;;10.50;99.90;;;;;;5092198;28;20291;-52
2023/04/22 03:13:33;;;;;;;690.77;126.13;;;10.50;99.90;;;;;;5091182;28;20232;-52
2023/04/22 03:16:01;;;;;;;683.70;130.47;;;10.50;99.90;;;;;;5087595;28;20238;-51
2023/04/22 03:18:29;;;;;;;577.40;114.90;;;10.50;99.90;;;;;;5084107;28;20207;-52
2023/04/22 03:20:57;;;;;;;25.00;16.43;;;10.50;99.90;;;;;;5077244;28;20260;-52
2023/04/22 03:23:25;;;;;;;1429.70;322.10;;;10.50;99.90;;;;;;5078510;28;20286;-52
2023/04/22 03:25:54;;;;;;;354.83;68.57;;;10.50;99.90;;;;;;5074956;28;20229;-52
2023/04/22 03:28:22;;;;;;;273.90;57.93;;;10.50;99.90;;;;;;5088187;28;20319;-52
2023/04/22 03:30:50;;;;;;;370.67;78.07;;;10.50;99.90;;;;;;5087314;28;20205;-52
2023/04/22 03:33:19;;;;;;;198.57;54.83;;;10.50;99.90;;;;;;5091980;28;20216;-52
2023/04/22 03:35:48;;;;;;;47.50;22.77;;;10.50;99.90;;;;;;5091140;28;20232;-52
2023/04/22 03:38:16;;;;;;;829.87;191.43;;;10.50;99.90;;;;;;5085005;28;20209;-52
2023/04/22 03:40:44;;;;;;;449.57;76.60;;;10.50;99.90;;;;;;5084084;28;20239;-51
2023/04/22 03:43:14;;;;;;;871.43;158.20;;;10.50;99.90;;;;;;5091592;28;20208;-52
2023/04/22 03:45:42;;;;;;;1317.23;252.43;;;10.50;99.90;;;;;;5091704;28;20315;-51
2023/04/22 03:48:10;;;;;;;874.77;142.00;;;10.50;99.90;;;;;;5091625;28;20208;-52
2023/04/22 03:50:38;;;;;;;118.93;28.90;;;10.50;99.90;;;;;;5091120;28;20286;-52
2023/04/22 03:53:06;;;;;;;467.23;82.33;;;10.50;99.90;;;;;;5091040;28;20294;-52
2023/04/22 03:55:34;;;;;;;681.63;106.93;;;10.50;99.90;;;;;;5090991;28;20765;-52
2023/04/22 03:58:02;;;;;;;106.60;29.67;;;10.50;99.90;;;;;;5091353;28;20228;-51
2023/04/22 04:00:31;;;;;;;226.93;59.47;;;10.50;99.90;;;;;;5091310;28;20303;-52
2023/04/22 04:02:59;;;;;;;229.07;47.80;;;10.50;99.90;;;;;;5091124;28;20242;-53
2023/04/22 04:05:28;;;;;;;633.83;127.37;;;10.50;99.90;;;;;;5090791;28;20238;-52
2023/04/22 04:07:56;;;;;;;288.93;64.47;;;10.50;99.90;;;;;;5091889;28;20235;-52
2023/04/22 04:10:24;;;;;;;69.87;39.40;;;10.50;99.90;;;;;;5090035;28;20283;-52
2023/04/22 04:12:52;;;;;;;739.37;118.33;;;10.50;99.90;;;;;;5090965;28;20244;-52
2023/04/22 04:15:20;;;;;;;367.17;72.97;;;10.50;99.90;;;;;;5090753;28;20307;-52
2023/04/22 04:17:50;;;;;;;703.47;122.60;;;10.50;99.90;;;;;;5090900;28;20255;-51
2023/04/22 04:20:18;;;;;;;526.43;83.63;;;10.50;99.90;;;;;;5090465;28;20316;-52
2023/04/22 04:22:46;;;;;;;895.50;154.37;;;10.50;99.90;;;;;;5090767;28;20790;-51
2023/04/22 04:25:14;;;;;;;840.77;204.13;;;10.50;99.90;;;;;;5090648;28;20314;-52
2023/04/22 04:27:43;;;;;;;583.77;117.73;;;10.50;99.90;;;;;;5090506;28;20211;-51
2023/04/22 04:30:11;;;;;;;44.77;24.80;;;10.60;99.90;;;;;;5090498;28;20239;-52
2023/04/22 04:32:41;;;;;;;757.67;113.20;;;10.60;99.90;;;;;;5089968;28;20212;-52
2023/04/22 04:35:13;;;;;;;694.50;121.33;;;10.60;99.90;;;;;;5091008;28;20280;-52
2023/04/22 04:37:43;;;;;;;559.57;106.90;;;10.60;99.90;;;;;;5088196;28;20295;-51
2023/04/22 04:40:12;;;;;;;225.50;45.63;;;10.60;99.90;;;;;;5090682;28;20243;-53
2023/04/22 04:42:41;;;;;;;252.90;69.27;;;10.60;99.90;;;;;;5088827;28;20319;-53
2023/04/22 04:45:09;;;;;;;745.70;143.30;;;10.50;99.90;;;;;;5099959;28;20227;-52
2023/04/22 04:47:37;;;;;;;1881.77;319.90;;;10.50;99.90;;;;;;5093418;28;20634;-52
2023/04/22 04:50:07;;;;;;;1366.93;255.03;;;10.50;99.90;;;;;;5092743;28;20207;-52
2023/04/22 04:52:36;;;;;;;982.87;177.20;;;10.50;99.90;;;;;;5110822;28;20208;-53
2023/04/22 04:55:04;;;;;;;245.50;65.00;;;10.50;99.90;;;;;;5110813;28;20630;-52
2023/04/22 04:57:32;;;;;;;23.50;15.57;;;10.60;99.90;;;;;;5110428;28;20630;-52
2023/04/22 05:00:01;;;;;;;541.40;96.17;;;10.70;99.90;;;;;;5110913;28;20221;-52
2023/04/22 05:02:29;;;;;;;1512.83;231.93;;;10.60;99.90;;;;;;5089876;28;20389;-52
2023/04/22 05:04:58;;;;;;;970.23;179.00;;;10.70;99.90;;;;;;5090053;28;20224;-52
2023/04/22 05:07:26;;;;;;;800.93;170.63;;;10.70;99.90;;;;;;5078016;28;20212;-52
2023/04/22 05:09:55;;;;;;;1519.97;469.87;;;10.80;99.90;;;;;;5090030;28;20737;-52
2023/04/22 05:12:23;;;;;;;1717.53;298.43;;;10.90;99.90;;;;;;5085010;28;20208;-53
2023/04/22 05:14:51;;;;;;;958.03;174.67;;;11.00;99.90;;;;;;5080662;28;20224;-52
2023/04/22 05:17:19;;;;;;;1866.10;386.73;;;11.20;99.90;;;;;;5089736;28;20250;-53
2023/04/22 05:19:47;;;;;;;936.73;187.50;;;11.20;99.90;;;;;;5089525;28;20286;-52
2023/04/22 05:22:16;;;;;;;684.67;154.87;;;11.30;99.90;;;;;;5074814;28;20252;-53
2023/04/22 05:24:46;;;;;;;187.23;57.93;;;11.40;99.90;;;;;;5075218;28;20314;-52
2023/04/22 05:27:15;;;;;;;1999.90;372.93;;;11.50;99.90;;;;;;5086286;28;20210;-52
2023/04/22 05:29:43;;;;;;;1991.33;325.33;;;11.70;99.90;;;;;;5086625;28;20212;-52
2023/04/22 05:32:11;;;;;;;1999.90;555.23;;;11.90;99.90;;;;;;5083713;28;20663;-53
2023/04/22 05:34:39;;;;;;;1999.90;999.90;;;12.20;99.90;;;;;;5086159;28;20220;-52
2023/04/22 05:37:09;;;;;;;1999.90;726.03;;;12.60;99.90;;;;;;5088564;28;20291;-53
2023/04/22 05:39:37;;;;;;;1999.90;597.17;;;12.60;99.90;;;;;;5086653;28;20287;-52
2023/04/22 05:42:06;;;;;;;1999.90;880.90;;;12.80;99.90;;;;;;5087686;28;20255;-52
2023/04/22 05:44:35;;;;;;;1999.90;445.53;;;12.90;99.90;;;;;;5087132;28;20323;-52
2023/04/22 05:47:03;;;;;;;1999.90;559.70;;;13.00;99.90;;;;;;5087550;28;20880;-52
2023/04/22 05:49:31;;;;;;;1999.90;627.97;;;13.00;99.90;;;;;;5087569;28;20304;-53
2023/04/22 05:51:59;;;;;;;1999.90;572.00;;;13.00;99.90;;;;;;5087358;28;20968;-52
2023/04/22 05:54:28;;;;;;;1999.90;583.20;;;13.10;99.90;;;;;;5087590;28;20224;-52
2023/04/22 05:56:56;;;;;;;1999.90;565.77;;;13.00;99.90;;;;;;5087358;28;20201;-52
2023/04/22 05:59:24;;;;;;;1999.90;463.00;;;12.90;99.90;;;;;;5088885;28;20317;-53
2023/04/22 06:01:53;;;;;;;1999.90;630.30;;;12.90;99.90;;;;;;5089112;28;20224;-53
2023/04/22 06:04:21;;;;;;;1999.90;316.27;;;12.90;99.90;;;;;;5088746;28;20706;-53
2023/04/22 06:06:52;;;;;;;1999.90;601.17;;;12.70;99.90;;;;;;5089094;28;20213;-53
2023/04/22 06:09:20;;;;;;;1999.90;646.47;;;12.60;99.90;;;;;;5089131;28;20235;-52
2023/04/22 06:11:49;;;;;;;1984.73;283.50;;;12.70;99.90;;;;;;5087009;28;20243;-53
2023/04/22 06:14:17;;;;;;;1999.90;411.17;;;12.80;99.90;;;;;;5084746;28;20327;-52
2023/04/22 06:16:45;;;;;;;1999.90;507.53;;;12.80;99.90;;;;;;5088081;28;20281;-52
2023/04/22 06:19:14;;;;;;;1999.90;369.03;;;12.80;99.90;;;;;;5088869;28;20694;-52
2023/04/22 06:21:42;;;;;;;1999.90;294.57;;;12.90;99.90;;;;;;5088604;28;20224;-52
2023/04/22 06:24:10;;;;;;;1999.90;555.17;;;13.00;99.90;;;;;;5088826;28;20220;-53
2023/04/22 06:26:38;;;;;;;1999.90;647.63;;;13.10;99.90;;;;;;5088849;28;20837;-52
2023/04/22 06:29:06;;;;;;;1999.90;483.03;;;13.20;99.90;;;;;;5088454;28;20667;-52
2023/04/22 06:31:34;;;;;;;1999.90;530.77;;;13.20;99.90;;;;;;5088516;28;20208;-52
2023/04/22 06:34:03;;;;;;;1999.90;728.30;;;13.20;99.90;;;;;;5087984;28;20278;-52
2023/04/22 06:36:36;;;;;;;1999.90;585.23;;;13.30;99.90;;;;;;5088752;28;20370;-53
2023/04/22 06:39:04;;;;;;;1999.90;399.60;;;13.40;99.90;;;;;;5088452;28;20226;-52
2023/04/22 06:41:32;;;;;;;1999.90;635.50;;;13.40;99.90;;;;;;5088054;28;20235;-52
2023/04/22 06:44:00;;;;;;;1999.90;414.47;;;13.50;99.90;;;;;;5087320;28;20324;-53
2023/04/22 06:46:28;;;;;;;1999.90;743.20;;;13.50;99.90;;;;;;5088067;28;20311;-52
2023/04/22 06:48:56;;;;;;;1999.90;561.70;;;13.50;99.90;;;;;;5088421;28;20287;-52
2023/04/22 06:51:25;;;;;;;1999.90;652.30;;;13.70;99.90;;;;;;5088111;28;20236;-52
2023/04/22 06:53:54;;;;;;;1999.90;639.23;;;13.90;99.90;;;;;;5088375;28;20192;-53
2023/04/22 06:56:22;;;;;;;1999.90;599.97;;;14.10;99.90;;;;;;5087916;28;20269;-52
2023/04/22 06:58:50;;;;;;;1999.90;595.33;;;14.30;99.90;;;;;;5088298;28;20208;-52
2023/04/22 07:01:18;;;;;;;1999.90;786.92;;;14.50;99.90;;;;;;5088288;28;20243;-52
2023/04/22 07:03:47;;;;;;;1999.90;726.25;;;15.00;99.90;;;;;;5088258;28;20606;-52
2023/04/22 07:06:15;;;;;;;1999.90;788.65;;;15.70;99.90;;;;;;5088106;28;20674;-52
2023/04/22 07:08:43;;;;;;;1999.90;884.58;;;16.00;99.90;;;;;;5087800;28;20287;-53
2023/04/22 07:11:12;;;;;;;1999.90;827.70;;;16.20;99.90;;;;;;5088034;28;20238;-52
2023/04/22 07:13:41;;;;;;;1999.90;946.03;;;16.40;99.90;;;;;;5073580;28;20705;-52
2023/04/22 07:16:09;;;;;;;1999.90;937.63;;;16.80;99.90;;;;;;5088297;28;20228;-53
2023/04/22 07:18:38;;;;;;;1999.90;999.90;;;17.20;99.90;;;;;;5088042;28;20621;-53
2023/04/22 07:21:07;;;;;;;1999.90;999.90;;;17.60;99.90;;;;;;5087963;28;20291;-52
2023/04/22 07:23:35;;;;;;;1999.90;999.90;;;17.70;99.90;;;;;;5087430;28;20323;-52
2023/04/22 07:26:03;;;;;;;1999.90;999.90;;;17.60;99.90;;;;;;5088463;28;20286;-53
2023/04/22 07:28:32;;;;;;;1999.90;999.90;;;17.70;99.90;;;;;;5087821;28;20586;-53
2023/04/22 07:31:00;;;;;;;1999.90;999.90;;;17.60;99.90;;;;;;5073764;28;20236;-52
2023/04/22 07:33:28;;;;;;;1999.90;999.90;;;17.50;99.90;;;;;;5087810;28;20200;-52
2023/04/22 07:35:56;;;;;;;1999.90;999.90;;;17.30;99.90;;;;;;5087782;28;20234;-52
2023/04/22 07:38:25;;;;;;;1999.90;999.90;;;17.20;99.90;;;;;;5089023;28;20215;-51
2023/04/22 07:40:53;;;;;;;1999.90;921.65;;;17.20;99.90;;;;;;5087738;28;20254;-52
2023/04/22 07:43:21;;;;;;;1999.90;999.90;;;17.20;99.90;;;;;;5087775;28;20312;-52
2023/04/22 07:45:51;;;;;;;1999.90;991.05;;;17.20;99.90;;;;;;5090736;28;20228;-52
2023/04/22 07:48:19;;;;;;;1999.90;998.35;;;17.10;99.90;;;;;;5091625;28;20238;-52
2023/04/22 07:50:47;;;;;;;1999.90;999.90;;;17.00;99.90;;;;;;5091737;28;20215;-52
2023/04/22 07:53:16;;;;;;;1999.90;926.85;;;17.00;99.90;;;;;;5091019;28;20494;-52
2023/04/22 07:55:44;;;;;;;1999.90;999.90;;;17.00;99.90;;;;;;5089217;28;20224;-52
2023/04/22 07:58:12;;;;;;;1999.90;999.90;;;17.10;99.90;;;;;;5090194;28;20705;-51
2023/04/22 08:00:40;;;;;;;1999.90;999.90;;;17.00;99.90;;;;;;5091287;28;20962;-52
2023/04/22 08:03:10;;;;;;;1999.90;956.63;;;17.00;99.90;;;;;;5089764;28;20220;-52
2023/04/22 08:05:38;;;;;;;1999.90;999.90;;;17.10;99.90;;;;;;5089847;28;20227;-52
2023/04/22 08:08:07;;;;;;;1999.90;855.03;;;17.00;99.90;;;;;;5090871;28;20644;-52
2023/04/22 08:10:35;;;;;;;1999.90;978.78;;;17.20;99.90;;;;;;5088307;28;20302;-50
2023/04/22 08:13:03;;;;;;;1999.90;960.47;;;17.30;99.90;;;;;;5088127;28;20328;-52
2023/04/22 08:15:31;;;;;;;1999.90;999.90;;;17.40;99.90;;;;;;5085655;28;20227;-52
2023/04/22 08:17:59;;;;;;;1999.90;992.47;;;17.60;99.90;;;;;;5089500;28;20298;-51
2023/04/22 08:20:29;;;;;;;1999.90;999.90;;;18.00;99.90;;;;;;5083288;28;20208;-51
2023/04/22 08:22:59;;;;;;;1999.90;999.90;;;18.20;99.90;;;;;;5085361;28;20275;-51
2023/04/22 08:25:27;;;;;;;1999.90;999.90;;;18.40;99.90;;;;;;5084460;28;20314;-52
2023/04/22 08:27:55;;;;;;;1999.90;999.90;;;18.70;99.90;;;;;;5090382;28;20212;-52
2023/04/22 08:30:23;;;;;;;1999.90;999.90;;;18.80;99.90;;;;;;5090620;28;20939;-52
2023/04/22 08:32:52;;;;;;;1999.90;999.90;;;19.20;99.90;;;;;;5090674;28;20941;-51
2023/04/22 08:35:20;;;;;;;1999.90;999.90;;;19.30;99.90;;;;;;5089476;28;20228;-52
2023/04/22 08:37:50;;;;;;;1999.90;999.90;;;19.30;99.90;;;;;;5075810;28;20265;-52
2023/04/22 08:40:17;;;;;;;1999.90;999.90;;;19.20;99.90;;;;;;5089380;28;20295;-52
2023/04/22 08:42:46;;;;;;;1999.90;999.90;;;19.10;99.90;;;;;;5090390;28;20733;-52
2023/04/22 08:45:14;;;;;;;1999.90;999.90;;;19.10;99.90;;;;;;5090651;28;20315;-51
2023/04/22 08:47:43;;;;;;;1999.90;999.90;;;19.30;99.90;;;;;;5090727;28;20208;-51
2023/04/22 08:50:11;;;;;;;1999.90;999.90;;;19.20;99.90;;;;;;5090770;28;20207;-51
2023/04/22 08:52:39;;;;;;;1999.90;999.90;;;19.20;99.90;;;;;;5087718;28;20231;-52
2023/04/22 08:55:09;;;;;;;1999.90;999.90;;;19.20;99.90;;;;;;5078844;28;20306;-52
2023/04/22 08:57:39;;;;;;;1999.90;999.90;;;19.20;99.90;;;;;;5085074;28;20651;-52
2023/04/22 09:00:08;;;;;;;1999.90;999.90;;;19.20;99.90;;;;;;5088902;28;20211;-52
2023/04/22 09:02:38;;;;;;;1999.90;999.90;;;19.50;99.90;;;;;;5088528;28;20212;-52
2023/04/22 09:05:08;;;;;;;1999.90;999.90;;;19.60;99.90;;;;;;5088577;28;21033;-52
2023/04/22 09:07:38;;;;;;;1999.90;999.90;;;19.60;99.90;;;;;;5088293;28;20217;-52
2023/04/22 09:10:10;;;;;;;1999.90;999.90;;;19.60;99.90;;;;;;5088098;28;20702;-52
2023/04/22 09:12:40;;;;;;;1999.90;999.90;;;19.50;99.90;;;;;;5088660;28;20200;-52
2023/04/22 09:15:09;;;;;;;1999.90;999.90;;;19.40;99.90;;;;;;5105894;28;20334;-51
2023/04/22 09:17:37;;;;;;;1999.90;999.90;;;19.40;99.90;;;;;;5110436;28;20302;-51
2023/04/22 09:20:07;;;;;;;1999.90;999.90;;;19.40;99.90;;;;;;5081956;28;20217;-51
2023/04/22 09:22:41;;;;;;;1999.90;999.90;;;19.30;99.90;;;;;;5101663;28;20207;-52
2023/04/22 09:25:17;;;;;;;1999.90;999.90;;;19.50;99.90;;;;;;5109448;28;20255;-52
2023/04/22 09:27:49;;;;;;;1999.90;999.90;;;19.50;99.90;;;;;;5087477;28;20240;-51
2023/04/22 09:30:19;;;;;;;1999.90;999.90;;;19.60;99.90;;;;;;5085134;28;20451;-52
2023/04/22 09:32:57;;;;;;;1999.90;999.90;;;19.60;99.90;;;;;;5087257;28;20311;-52
2023/04/22 09:35:29;;;;;;;1999.90;999.90;;;19.70;99.90;;;;;;5083163;28;20405;-52
2023/04/22 09:37:58;;;;;;;1999.90;999.90;;;19.80;99.90;;;;;;5085014;28;20204;-52
2023/04/22 09:40:28;;;;;;;1999.90;999.90;;;20.00;99.90;;;;;;5086530;28;20677;-52
2023/04/22 09:42:58;;;;;;;1999.90;999.90;;;20.10;99.90;;;;;;5087982;28;20291;-51
2023/04/22 09:45:31;;;;;;;1999.90;999.90;;;20.10;99.90;;;;;;5088387;28;20232;-51
2023/04/22 09:48:03;;;;;;;1999.90;999.90;;;20.10;99.90;;;;;;5089030;28;20674;-51
2023/04/22 09:50:31;;;;;;;1999.90;999.90;;;20.10;99.90;;;;;;5089807;28;20219;-50
2023/04/22 09:53:01;;;;;;;1999.90;999.90;;;20.10;99.90;;;;;;5089310;28;20236;-51
2023/04/22 09:55:32;;;;;;;1999.90;999.90;;;20.20;99.90;;;;;;5088929;28;20256;-51
2023/04/22 09:58:06;;;;;;;1999.90;999.90;;;20.20;99.90;;;;;;5088505;28;20206;-51
2023/04/22 10:00:36;;;;;;;1999.90;999.90;;;20.30;99.90;;;;;;5087758;28;20311;-51
2023/04/22 10:03:05;;;;;;;1999.90;999.90;;;20.30;99.90;;;;;;5088384;28;20204;-50
2023/04/22 10:05:37;;;;;;;1999.90;999.90;;;20.30;99.90;;;;;;5089221;28;20697;-51
2023/04/22 10:08:06;;;;;;;1999.90;999.90;;;20.40;99.90;;;;;;5088324;28;20311;-51
2023/04/22 10:10:38;;;;;;;1999.90;999.90;;;20.30;99.90;;;;;;5089005;28;20270;-51
2023/04/22 10:13:06;;;;;;;1999.90;999.90;;;20.50;99.90;;;;;;5089091;28;20291;-50
2023/04/22 10:15:38;;;;;;;1999.90;999.90;;;20.50;99.90;;;;;;5089049;28;20273;-51
2023/04/22 10:18:11;;;;;;;1999.90;999.90;;;20.10;99.90;;;;;;5088882;28;20220;-51
2023/04/22 10:20:43;;;;;;;1999.90;999.90;;;20.20;99.90;;;;;;5088927;28;20235;-50
2023/04/22 10:23:15;;;;;;;1999.90;999.90;;;20.30;99.90;;;;;;5088826;28;20227;-50
2023/04/22 10:25:47;;;;;;;1999.90;999.90;;;20.50;99.90;;;;;;5088986;28;20765;-51
2023/04/22 10:28:17;;;;;;;1999.90;999.90;;;20.50;99.90;;;;;;5074608;28;20262;-51
2023/04/22 10:30:45;;;;;;;1999.90;999.90;;;20.50;99.90;;;;;;5089024;28;20694;-50
2023/04/22 10:33:38;;;;;;;1999.90;999.90;;;20.40;99.90;;;;;;5088816;28;20200;-50
2023/04/22 10:36:15;;;;;;;1999.90;999.90;;;20.50;99.90;;;;;;5078049;28;20505;-50
2023/04/22 10:39:16;;;;;;;1999.90;999.90;;;20.50;99.90;;;;;;5087434;28;20291;-51
2023/04/22 10:41:55;;;;;;;1999.90;999.90;;;20.50;99.90;;;;;;5069527;28;20258;-51
2023/04/22 10:44:28;;;;;;;1999.90;999.90;;;20.50;99.90;;;;;;5075290;28;20315;-51
2023/04/22 10:47:00;;;;;;;1999.90;999.90;;;20.60;99.90;;;;;;5087754;28;20625;-51
2023/04/22 10:49:31;;;;;;;1999.90;999.90;;;20.60;99.90;;;;;;5086388;28;20209;-50
2023/04/22 10:52:02;;;;;;;1999.90;999.90;;;20.60;99.90;;;;;;5086525;28;20291;-51
2023/04/22 10:54:55;;;;;;;1999.90;999.90;;;20.70;99.90;;;;;;5086634;28;20819;-51
2023/04/22 10:57:35;;;;;;;1999.90;999.90;;;20.80;99.90;;;;;;5086557;28;20243;-51
2023/04/22 11:00:26;;;;;;;1999.90;999.90;;;21.10;99.90;;;;;;5087044;28;20204;-51
2023/04/22 11:03:13;;;;;;;1999.90;999.90;;;21.20;99.90;;;;;;5088159;28;20196;-51
2023/04/22 11:05:42;;;;;;;1999.90;999.90;;;21.50;99.90;;;;;;5084483;28;20608;-51
2023/04/22 11:08:19;;;;;;;1999.90;999.90;;;21.50;99.90;;;;;;5080166;28;20200;-51
2023/04/22 11:10:48;;;;;;;1999.90;999.90;;;21.50;99.90;;;;;;5083931;28;20269;-51
2023/04/22 11:13:20;;;;;;;1999.90;999.90;;;21.30;99.90;;;;;;5080919;28;20207;-51
2023/04/22 11:15:50;;;;;;;1999.90;999.90;;;21.20;99.90;;;;;;5080738;28;20936;-51
2023/04/22 11:18:20;;;;;;;1999.90;999.90;;;21.10;99.90;;;;;;5087612;28;20682;-54
2023/04/22 11:20:49;;;;;;;1999.90;999.90;;;21.00;99.90;;;;;;5089647;28;20203;-51
2023/04/22 11:23:21;;;;;;;1999.90;999.90;;;21.00;99.90;;;;;;5089148;28;20212;-51
2023/04/22 11:25:55;;;;;;;1999.90;999.90;;;21.00;99.90;;;;;;5090183;28;20350;-51
2023/04/22 11:28:24;;;;;;;1999.90;999.90;;;21.00;99.90;;;;;;5090432;28;20319;-51
2023/04/22 11:30:53;;;;;;;1999.90;999.90;;;20.90;99.90;;;;;;5090394;28;20232;-51
2023/04/22 11:33:21;;;;;;;1999.90;999.90;;;21.00;99.90;;;;;;5090153;28;20235;-52
2023/04/22 11:35:50;;;;;;;1999.90;999.90;;;21.00;99.90;;;;;;5088773;28;20216;-51
2023/04/22 11:38:18;;;;;;;1999.90;999.90;;;21.10;99.90;;;;;;5084596;28;20671;-51
2023/04/22 11:40:46;;;;;;;1999.90;999.90;;;21.30;99.90;;;;;;5079468;28;20294;-51
2023/04/22 11:43:17;;;;;;;1999.90;999.90;;;21.40;99.90;;;;;;5090485;28;20212;-51
2023/04/22 11:45:47;;;;;;;1999.90;999.90;;;21.50;99.90;;;;;;5089597;28;20224;-51
2023/04/22 11:48:15;;;;;;;1999.90;999.90;;;21.70;99.90;;;;;;5089168;28;20623;-51
2023/04/22 11:50:44;;;;;;;1999.90;999.90;;;21.50;99.90;;;;;;5088445;28;20631;-51
2023/04/22 11:53:15;;;;;;;1999.90;999.90;;;21.50;99.90;;;;;;5088101;28;20219;-51
2023/04/22 11:55:46;;;;;;;1999.90;999.90;;;21.40;99.90;;;;;;5085587;28;20224;-51
2023/04/22 11:58:16;;;;;;;1999.90;999.90;;;21.30;99.90;;;;;;5085222;28;21337;-51
2023/04/22 12:00:47;;;;;;;1999.90;999.90;;;21.50;99.90;;;;;;5086345;28;20663;-50
2023/04/22 12:03:17;;;;;;;1999.90;999.90;;;21.60;99.90;;;;;;5088102;28;20266;-51
2023/04/22 12:05:46;;;;;;;1999.90;999.90;;;21.50;99.90;;;;;;5095527;28;20231;-51
2023/04/22 12:08:16;;;;;;;1999.90;999.90;;;21.40;99.90;;;;;;5091198;28;20212;-50
2023/04/22 12:10:46;;;;;;;1999.90;999.90;;;21.40;99.90;;;;;;5091116;28;20295;-51
2023/04/22 12:13:20;;;;;;;1999.90;999.90;;;21.30;99.90;;;;;;5078413;28;20212;-50
2023/04/22 12:15:54;;;;;;;1999.90;999.90;;;21.10;99.90;;;;;;5084949;28;20297;-51